Time;durP1;ratioP1;P1;durP2;ratioP2;P2;SDS_P1;SDS_P2;PMS_P1;PMS_P2;Temp;Humidity;BMP_temperature;BMP_pressure;BME280_temperature;BME280_humidity;BME280_pressure;Samples;Min_cycle;Max_cycle;Signal;HPM_P1;HPM_P2
2021/06/09 00:01:12;;;;;;;;;;;;;;;16.75;58.24;97111.40;1646973;85;20114;-84
2021/06/09 00:03:38;;;;;;;;;;;;;;;16.69;56.61;97106.25;1656148;85;20123;-79
2021/06/09 00:06:04;;;;;;;;;;;;;;;16.66;55.06;97101.24;1677720;85;20106;-79
2021/06/09 00:08:31;;;;;;;;;;;;;;;16.64;56.70;97098.41;1682762;84;20098;-78
2021/06/09 00:10:57;;;;;;;;;;;;;;;16.60;58.66;97099.72;1683650;85;20135;-79
2021/06/09 00:13:26;;;;;;;;;;;;;;;16.58;58.49;97100.37;1686207;85;20102;-86
2021/06/09 00:15:52;;;;;;;;;;;;;;;16.55;58.82;97101.53;1653652;85;20134;-80
2021/06/09 00:18:18;;;;;;;;;;;;;;;16.51;58.63;97101.02;1668173;85;20095;-77
2021/06/09 00:20:45;;;;;;;;;;;;;;;16.49;56.95;97104.34;1658553;85;20112;-84
2021/06/09 00:23:16;;;;;;;;;;;;;;;16.48;56.46;97099.19;1678657;85;20403;-82
2021/06/09 00:25:46;;;;;;;;;;;;;;;16.45;55.29;97100.34;1651708;85;20408;-77
2021/06/09 00:28:08;;;;;;;;;;;;;;;16.43;58.56;97098.81;1655267;86;20115;-79
2021/06/09 00:30:34;;;;;;;;;;;;;;;16.41;58.13;97096.84;1665268;84;20137;-79
2021/06/09 00:33:02;;;;;;;;;;;;;;;16.38;58.72;97099.30;1681886;84;20114;-79
2021/06/09 00:35:31;;;;;;;;;;;;;;;16.35;57.27;97099.13;1680261;84;20099;-80
2021/06/09 00:37:57;;;;;;;;;;;;;;;16.18;56.55;97076.97;1698868;84;20185;-79
2021/06/09 00:40:26;;;;;;;;;;;;;;;16.32;59.13;97091.97;1691896;84;20136;-82
2021/06/09 00:43:07;;;;;;;;;;;;;;;16.30;56.63;97087.30;1689300;85;20127;-77
2021/06/09 00:45:36;;;;;;;;;;;;;;;16.28;56.18;97086.64;1663554;84;20135;-79
2021/06/09 00:48:04;;;;;;;;;;;;;;;16.28;57.40;97087.98;1657131;85;20134;-78
2021/06/09 00:50:31;;;;;;;;;;;;;;;16.27;59.25;97090.30;1664953;85;20185;-81
2021/06/09 00:53:27;;;;;;;;;;;;;;;16.27;57.59;97085.80;1693172;83;20147;-86
2021/06/09 00:55:25;;;;;;;;;;;;;;;16.26;54.85;97080.13;1682974;85;20128;-82
2021/06/09 00:57:51;;;;;;;;;;;;;;;16.25;59.29;97079.80;1665856;85;20398;-80
2021/06/09 01:00:18;;;;;;;;;;;;;;;16.26;57.91;97079.31;1641865;85;20423;-79
2021/06/09 01:02:46;;;;;;;;;;;;;;;16.27;55.56;97071.68;1657802;86;20131;-79
2021/06/09 01:05:12;;;;;;;;;;;;;;;16.28;61.08;97069.36;1665356;85;20109;-80
2021/06/09 01:07:39;;;;;;;;;;;;;;;16.27;57.52;97069.02;1673985;84;20114;-78
2021/06/09 01:10:07;;;;;;;;;;;;;;;16.27;58.59;97069.02;1666374;84;20130;-83
2021/06/09 01:12:34;;;;;;;;;;;;;;;16.27;58.60;97068.51;1665990;86;20106;-81
2021/06/09 01:15:00;;;;;;;;;;;;;;;16.29;58.12;97061.69;1678927;85;20103;-79
2021/06/09 01:17:26;;;;;;;;;;;;;;;16.27;58.99;97056.54;1696809;85;20416;-83
2021/06/09 01:19:53;;;;;;;;;;;;;;;16.27;59.64;97053.06;1682741;85;20104;-79
2021/06/09 01:22:19;;;;;;;;;;;;;;;16.26;57.81;97048.22;1682423;84;20144;-77
2021/06/09 01:24:45;;;;;;;;;;;;;;;16.24;59.99;97054.19;1651532;87;20118;-79
2021/06/09 01:27:11;;;;;;;;;;;;;;;16.23;61.11;97048.05;1651859;87;20098;-79
2021/06/09 01:29:37;;;;;;;;;;;;;;;16.22;60.69;97050.88;1666339;86;20118;-78
2021/06/09 01:32:04;;;;;;;;;;;;;;;16.20;58.46;97055.02;1651955;86;20135;-77
2021/06/09 01:34:30;;;;;;;;;;;;;;;16.18;59.86;97048.20;1648617;86;20106;-83
2021/06/09 01:36:56;;;;;;;;;;;;;;;16.16;57.56;97047.52;1638038;87;20505;-82
2021/06/09 01:39:22;;;;;;;;;;;;;;;16.12;58.45;97052.83;1640809;86;20399;-80
2021/06/09 01:41:50;;;;;;;;;;;;;;;16.08;59.45;97044.34;1657903;86;20406;-78
2021/06/09 01:44:16;;;;;;;;;;;;;;;16.06;58.80;97048.98;1655727;84;20423;-76
2021/06/09 01:46:43;;;;;;;;;;;;;;;16.02;58.68;97048.95;1651913;86;20423;-83
2021/06/09 01:49:11;;;;;;;;;;;;;;;15.98;56.81;97045.78;1655547;86;20108;-79
2021/06/09 01:51:38;;;;;;;;;;;;;;;15.92;61.90;97051.73;1654243;85;20399;-76
2021/06/09 01:54:06;;;;;;;;;;;;;;;15.87;60.19;97048.22;1646962;86;20114;-84
2021/06/09 01:56:33;;;;;;;;;;;;;;;15.83;60.17;97052.14;1659308;86;20104;-79
2021/06/09 01:59:17;;;;;;;;;;;;;;;15.77;60.62;97045.66;1667290;86;20106;-79
2021/06/09 02:01:47;;;;;;;;;;;;;;;15.74;61.06;97047.77;1637555;87;20456;-80
2021/06/09 02:04:13;;;;;;;;;;;;;;;15.69;57.59;97043.44;1639453;87;20110;-82
2021/06/09 02:06:41;;;;;;;;;;;;;;;15.60;60.88;97040.73;1672560;86;20107;-80
2021/06/09 02:09:09;;;;;;;;;;;;;;;15.56;58.16;97045.19;1652287;86;20126;-82
2021/06/09 02:11:43;;;;;;;;;;;;;;;15.52;61.24;97049.13;1651168;86;20118;-79
2021/06/09 02:14:10;;;;;;;;;;;;;;;15.46;62.19;97046.59;1663956;86;20425;-81
2021/06/09 02:16:39;;;;;;;;;;;;;;;15.41;61.55;97044.91;1663720;84;20415;-81
2021/06/09 02:19:06;;;;;;;;;;;;;;;15.37;62.18;97044.87;1626817;87;20122;-83
2021/06/09 02:21:33;;;;;;;;;;;;;;;15.32;61.85;97047.98;1639928;86;20225;-79
2021/06/09 02:24:02;;;;;;;;;;;;;;;15.27;60.27;97047.12;1663342;85;20116;-81
2021/06/09 02:26:28;;;;;;;;;;;;;;;15.22;59.16;97046.77;1672601;85;20113;-79
2021/06/09 02:28:54;;;;;;;;;;;;;;;15.18;60.74;97045.39;1660988;84;20116;-78
2021/06/09 02:31:21;;;;;;;;;;;;;;;15.12;61.14;97046.02;1681293;85;20112;-78
2021/06/09 02:33:47;;;;;;;;;;;;;;;15.09;62.66;97046.31;1660883;84;20115;-78
2021/06/09 02:36:15;;;;;;;;;;;;;;;15.05;61.08;97045.78;1665248;84;20136;-85
2021/06/09 02:38:42;;;;;;;;;;;;;;;15.04;62.32;97053.91;1655987;84;20399;-78
2021/06/09 02:41:09;;;;;;;;;;;;;;;15.02;60.63;97055.88;1653113;86;20170;-83
2021/06/09 02:43:36;;;;;;;;;;;;;;;15.00;61.61;97049.41;1683853;84;20165;-80
2021/06/09 02:46:15;;;;;;;;;;;;;;;14.99;60.91;97055.70;1672153;84;20398;-83
2021/06/09 02:48:44;;;;;;;;;;;;;;;14.99;59.70;97053.86;1660221;84;20405;-78
2021/06/09 02:51:16;;;;;;;;;;;;;;;14.99;60.29;97052.53;1653502;85;20146;-79
2021/06/09 02:54:01;;;;;;;;;;;;;;;14.98;60.06;97050.89;1664584;84;20135;-80
2021/06/09 02:56:34;;;;;;;;;;;;;;;14.99;61.93;97053.04;1632926;85;20453;-83
2021/06/09 02:59:18;;;;;;;;;;;;;;;15.01;60.06;97052.41;1666841;84;20431;-79
2021/06/09 03:01:48;;;;;;;;;;;;;;;15.02;61.15;97049.24;1653280;85;20439;-81
2021/06/09 03:04:24;;;;;;;;;;;;;;;15.04;61.74;97047.27;1660570;84;20111;-84
2021/06/09 03:06:56;;;;;;;;;;;;;;;15.08;60.60;97056.61;1677428;84;20398;-81
2021/06/09 03:09:32;;;;;;;;;;;;;;;15.12;60.06;97051.33;1681196;85;20167;-77
2021/06/09 03:12:07;;;;;;;;;;;;;;;15.17;60.88;97047.73;1662074;84;20157;-80
2021/06/09 03:17:27;;;;;;;;;;;;;;;15.27;61.95;97048.45;1678061;84;20108;-79
2021/06/09 03:20:31;;;;;;;;;;;;;;;15.33;60.73;97049.66;1652779;85;20147;-79
2021/06/09 03:23:12;;;;;;;;;;;;;;;15.39;62.27;97049.06;1651663;84;20389;-78
2021/06/09 03:25:51;;;;;;;;;;;;;;;15.46;61.22;97045.27;1657327;85;20123;-82
2021/06/09 03:28:37;;;;;;;;;;;;;;;15.53;60.71;97050.32;1666687;84;20145;-79
2021/06/09 03:31:06;;;;;;;;;;;;;;;15.59;62.75;97048.36;1666689;85;20138;-85
2021/06/09 03:33:38;;;;;;;;;;;;;;;15.68;59.55;97044.42;1666573;85;20098;-88
2021/06/09 03:36:08;;;;;;;;;;;;;;;15.74;60.73;97044.63;1646920;85;20111;-80
2021/06/09 03:38:47;;;;;;;;;;;;;;;15.81;60.64;97038.68;1656835;84;20106;-84
2021/06/09 03:41:14;;;;;;;;;;;;;;;15.90;60.75;97038.62;1651961;85;20162;-79
2021/06/09 03:43:43;;;;;;;;;;;;;;;15.99;61.60;97039.98;1664603;85;20115;-80
2021/06/09 03:46:09;;;;;;;;;;;;;;;16.07;60.52;97040.83;1673341;85;20115;-81
2021/06/09 03:48:39;;;;;;;;;;;;;;;16.15;61.05;97042.70;1661986;86;20157;-79
2021/06/09 03:51:07;;;;;;;;;;;;;;;16.35;61.01;97040.61;1650195;86;20164;-79
2021/06/09 03:53:34;;;;;;;;;;;;;;;16.75;60.06;97038.72;1663321;85;20139;-79
2021/06/09 03:56:02;;;;;;;;;;;;;;;17.30;60.85;97037.30;1663346;85;20143;-79
2021/06/09 03:58:29;;;;;;;;;;;;;;;17.89;58.95;97041.03;1672903;85;20184;-79
2021/06/09 04:00:58;;;;;;;;;;;;;;;18.49;58.95;97037.47;1657474;86;20379;-78
2021/06/09 04:03:25;;;;;;;;;;;;;;;19.10;58.03;97043.48;1652063;85;20196;-77
2021/06/09 04:05:53;;;;;;;;;;;;;;;19.66;57.12;97037.80;1653165;85;20135;-83
2021/06/09 04:08:20;;;;;;;;;;;;;;;20.25;56.60;97042.03;1677237;85;20136;-83
2021/06/09 04:10:47;;;;;;;;;;;;;;;20.83;54.83;97034.60;1673528;84;20135;-81
2021/06/09 04:13:15;;;;;;;;;;;;;;;21.30;53.96;97036.37;1690735;84;20426;-85
2021/06/09 04:15:41;;;;;;;;;;;;;;;21.80;53.44;97038.55;1672527;86;20186;-80
2021/06/09 04:18:09;;;;;;;;;;;;;;;22.37;51.35;97033.08;1662433;85;20143;-80
2021/06/09 04:20:36;;;;;;;;;;;;;;;22.91;49.38;97035.95;1667479;86;20402;-79
2021/06/09 04:23:04;;;;;;;;;;;;;;;23.43;49.01;97032.75;1661365;85;20147;-80
2021/06/09 04:25:31;;;;;;;;;;;;;;;23.92;48.89;97038.17;1661789;85;20110;-81
2021/06/09 04:27:57;;;;;;;;;;;;;;;24.47;50.05;97043.23;1672925;84;20110;-82
2021/06/09 04:30:24;;;;;;;;;;;;;;;24.85;48.53;97040.27;1644841;85;20134;-82
2021/06/09 04:33:02;;;;;;;;;;;;;;;25.21;45.15;97033.93;1647622;85;20110;-81
2021/06/09 04:35:31;;;;;;;;;;;;;;;25.65;43.85;97044.83;1662507;84;20114;-82
2021/06/09 04:37:57;;;;;;;;;;;;;;;26.02;42.72;97032.20;1645465;86;20103;-80
2021/06/09 04:40:26;;;;;;;;;;;;;;;26.45;45.23;97035.91;1688440;84;20407;-82
2021/06/09 04:42:53;;;;;;;;;;;;;;;26.77;41.49;97037.07;1693629;84;20428;-80
2021/06/09 04:45:20;;;;;;;;;;;;;;;27.12;40.70;97037.75;1682882;84;20108;-81
2021/06/09 04:47:47;;;;;;;;;;;;;;;27.55;38.77;97037.72;1659775;85;20127;-83
2021/06/09 04:50:19;;;;;;;;;;;;;;;27.90;40.15;97035.55;1652772;86;20125;-82
2021/06/09 04:52:46;;;;;;;;;;;;;;;28.20;37.24;97034.62;1663665;85;20156;-84
2021/06/09 04:55:13;;;;;;;;;;;;;;;28.59;36.25;97033.52;1666853;84;20436;-83
2021/06/09 04:57:41;;;;;;;;;;;;;;;28.94;35.07;97035.84;1691274;84;20129;-80
2021/06/09 05:00:11;;;;;;;;;;;;;;;29.27;37.11;97034.23;1687014;85;20119;-80
2021/06/09 05:02:37;;;;;;;;;;;;;;;29.55;35.45;97029.32;1669601;85;20100;-79
2021/06/09 05:05:04;;;;;;;;;;;;;;;29.88;35.37;97034.97;1666909;84;20098;-82
2021/06/09 05:07:30;;;;;;;;;;;;;;;30.05;33.58;97041.22;1680175;85;20166;-85
2021/06/09 05:09:57;;;;;;;;;;;;;;;30.23;33.57;97029.22;1674106;85;20152;-81
2021/06/09 05:12:35;;;;;;;;;;;;;;;30.65;33.70;97042.81;1688545;84;20445;-81
2021/06/09 05:15:06;;;;;;;;;;;;;;;30.95;30.83;97040.70;1668135;84;20102;-85
2021/06/09 05:17:44;;;;;;;;;;;;;;;31.20;30.95;97031.97;1660127;86;20162;-84
2021/06/09 05:20:16;;;;;;;;;;;;;;;31.55;30.94;97036.63;1659875;86;20133;-81
2021/06/09 05:22:46;;;;;;;;;;;;;;;31.77;30.25;97036.55;1661382;86;20117;-82
2021/06/09 05:25:13;;;;;;;;;;;;;;;32.15;30.02;97040.61;1672807;84;20106;-84
2021/06/09 05:27:41;;;;;;;;;;;;;;;32.27;29.85;97041.78;1643364;86;20455;-84
2021/06/09 05:30:08;;;;;;;;;;;;;;;32.38;32.65;97041.56;1656848;85;20105;-82
2021/06/09 05:32:35;;;;;;;;;;;;;;;32.20;29.59;97041.42;1653545;86;20114;-83
2021/06/09 05:35:02;;;;;;;;;;;;;;;32.26;28.89;97046.39;1649789;87;20103;-84
2021/06/09 05:37:28;;;;;;;;;;;;;;;32.40;28.17;97039.92;1674010;84;20099;-79
2021/06/09 05:39:59;;;;;;;;;;;;;;;32.61;28.02;97037.28;1693069;85;20108;-82
2021/06/09 05:42:22;;;;;;;;;;;;;;;32.38;28.76;97041.56;1675184;85;20172;-82
2021/06/09 05:44:48;;;;;;;;;;;;;;;32.30;28.42;97037.98;1656272;86;20106;-82
2021/06/09 05:47:15;;;;;;;;;;;;;;;32.14;28.08;97045.78;1663574;85;20139;-84
2021/06/09 05:49:41;;;;;;;;;;;;;;;31.85;31.67;97045.59;1656135;86;20123;-81
2021/06/09 05:52:08;;;;;;;;;;;;;;;30.95;31.67;97049.67;1656535;85;20102;-80
2021/06/09 05:54:36;;;;;;;;;;;;;;;30.80;30.31;97031.28;1634188;86;20383;-79
2021/06/09 05:57:04;;;;;;;;;;;;;;;30.78;30.12;97048.94;1675170;85;20461;-79
2021/06/09 05:59:32;;;;;;;;;;;;;;;30.93;29.21;97049.65;1677291;85;20443;-81
2021/06/09 06:01:58;;;;;;;;;;;;;;;30.31;30.95;97050.23;1668103;84;20405;-80
2021/06/09 06:04:25;;;;;;;;;;;;;;;29.99;31.01;97055.78;1685440;84;20128;-80
2021/06/09 06:06:52;;;;;;;;;;;;;;;30.45;30.53;97050.69;1670004;85;20138;-80
2021/06/09 06:09:18;;;;;;;;;;;;;;;30.95;30.20;97054.30;1665267;85;20115;-84
2021/06/09 06:11:47;;;;;;;;;;;;;;;30.75;30.67;97057.08;1658117;87;20154;-80
2021/06/09 06:14:14;;;;;;;;;;;;;;;30.25;31.07;97060.25;1685049;85;20139;-78
2021/06/09 06:16:53;;;;;;;;;;;;;;;29.74;32.04;97057.58;1662669;84;20138;-82
2021/06/09 06:19:20;;;;;;;;;;;;;;;29.56;31.12;97066.78;1690026;85;20140;-80
2021/06/09 06:21:47;;;;;;;;;;;;;;;29.64;30.96;97058.22;1672098;84;20095;-81
2021/06/09 06:24:16;;;;;;;;;;;;;;;29.80;30.86;97061.17;1670631;85;20099;-80
2021/06/09 06:26:45;;;;;;;;;;;;;;;29.97;30.45;97065.27;1690731;84;20107;-82
2021/06/09 06:29:11;;;;;;;;;;;;;;;29.95;30.41;97060.61;1685222;84;20437;-81
2021/06/09 06:31:38;;;;;;;;;;;;;;;29.98;31.30;97068.27;1660182;84;20236;-84
2021/06/09 06:34:05;;;;;;;;;;;;;;;29.86;30.88;97063.72;1641923;85;20189;-82
2021/06/09 06:36:31;;;;;;;;;;;;;;;29.66;30.83;97055.25;1666632;85;20131;-82
2021/06/09 06:38:58;;;;;;;;;;;;;;;29.77;30.72;97055.70;1660574;85;20114;-78
2021/06/09 06:41:26;;;;;;;;;;;;;;;29.72;30.96;97059.16;1656239;85;20102;-80
2021/06/09 06:43:54;;;;;;;;;;;;;;;29.49;31.16;97056.08;1651857;85;20114;-81
2021/06/09 06:46:22;;;;;;;;;;;;;;;29.73;31.90;97059.45;1661057;85;20136;-81
2021/06/09 06:48:50;;;;;;;;;;;;;;;30.09;30.80;97061.08;1665465;85;20111;-78
2021/06/09 06:51:16;;;;;;;;;;;;;;;30.34;30.51;97062.81;1659181;85;20110;-79
2021/06/09 06:53:45;;;;;;;;;;;;;;;30.57;30.63;97060.13;1676299;85;20138;-77
2021/06/09 06:56:13;;;;;;;;;;;;;;;30.49;30.64;97058.63;1651328;84;20119;-80
2021/06/09 06:58:39;;;;;;;;;;;;;;;30.15;31.07;97058.74;1666685;85;20128;-83
2021/06/09 07:01:06;;;;;;;;;;;;;;;30.21;30.81;97060.45;1666030;85;20128;-83
2021/06/09 07:03:35;;;;;;;;;;;;;;;30.23;31.21;97059.66;1647461;85;20143;-82
2021/06/09 07:06:02;;;;;;;;;;;;;;;29.58;31.66;97060.03;1644825;85;20436;-84
2021/06/09 07:08:29;;;;;;;;;;;;;;;29.27;32.17;97052.72;1653774;85;20412;-82
2021/06/09 07:10:55;;;;;;;;;;;;;;;28.75;32.45;97056.89;1648156;85;20102;-83
2021/06/09 07:13:22;;;;;;;;;;;;;;;28.22;33.47;97051.47;1652685;85;20096;-80
2021/06/09 07:15:48;;;;;;;;;;;;;;;28.21;33.81;97049.81;1668688;85;20114;-80
2021/06/09 07:18:16;;;;;;;;;;;;;;;28.46;32.78;97041.41;1640177;87;20172;-81
2021/06/09 07:20:42;;;;;;;;;;;;;;;28.63;32.88;97046.06;1660796;85;20172;-81
2021/06/09 07:23:09;;;;;;;;;;;;;;;28.62;32.59;97045.77;1658730;84;20450;-83
2021/06/09 07:25:35;;;;;;;;;;;;;;;28.72;32.69;97037.88;1628930;86;20105;-82
2021/06/09 07:28:04;;;;;;;;;;;;;;;28.78;32.74;97042.86;1622218;87;20125;-83
2021/06/09 07:30:34;;;;;;;;;;;;;;;28.96;31.81;97045.38;1642056;85;20118;-83
2021/06/09 07:33:05;;;;;;;;;;;;;;;28.64;32.60;97043.65;1660331;85;20178;-81
2021/06/09 07:35:32;;;;;;;;;;;;;;;28.72;31.77;97052.78;1655253;85;20156;-80
2021/06/09 07:38:04;;;;;;;;;;;;;;;28.31;32.21;97039.20;1663961;85;20109;-80
2021/06/09 07:40:37;;;;;;;;;;;;;;;28.41;31.88;97040.47;1653409;85;20450;-80
2021/06/09 07:43:12;;;;;;;;;;;;;;;28.34;31.07;97042.80;1642365;85;20140;-81
2021/06/09 07:45:40;;;;;;;;;;;;;;;28.10;31.81;97043.87;1636187;86;20131;-79
2021/06/09 07:48:07;;;;;;;;;;;;;;;27.52;32.41;97047.66;1634381;87;20114;-82
2021/06/09 07:50:42;;;;;;;;;;;;;;;27.73;32.59;97044.39;1620584;87;20112;-81
2021/06/09 07:53:11;;;;;;;;;;;;;;;27.99;32.60;97046.32;1635052;86;20122;-81
2021/06/09 07:55:42;;;;;;;;;;;;;;;28.49;31.83;97046.33;1637690;86;20398;-82
2021/06/09 07:58:09;;;;;;;;;;;;;;;28.60;31.49;97046.53;1605538;88;20134;-79
2021/06/09 08:00:35;;;;;;;;;;;;;;;28.88;30.85;97044.93;1623058;87;20160;-80
2021/06/09 08:03:02;;;;;;;;;;;;;;;28.98;31.27;97045.97;1628313;87;20432;-80
2021/06/09 08:05:28;;;;;;;;;;;;;;;28.70;30.69;97056.23;1650670;86;20444;-79
2021/06/09 08:07:55;;;;;;;;;;;;;;;28.60;30.74;97050.09;1615225;87;20118;-80
2021/06/09 08:10:22;;;;;;;;;;;;;;;28.52;31.18;97049.92;1615795;87;20420;-80
2021/06/09 08:12:50;;;;;;;;;;;;;;;28.31;31.21;97051.39;1658210;86;20398;-79
2021/06/09 08:15:17;;;;;;;;;;;;;;;28.23;31.50;97050.92;1644381;86;20405;-79
2021/06/09 08:17:45;;;;;;;;;;;;;;;28.38;31.95;97048.55;1618567;86;20389;-81
2021/06/09 08:20:14;;;;;;;;;;;;;;;28.54;30.87;97051.02;1650673;86;20407;-80
2021/06/09 08:22:44;;;;;;;;;;;;;;;28.16;31.43;97049.72;1633387;87;20421;-82
2021/06/09 08:25:13;;;;;;;;;;;;;;;28.11;30.53;97051.78;1657308;85;20164;-81
2021/06/09 08:27:40;;;;;;;;;;;;;;;28.31;30.06;97053.26;1644100;85;20423;-81
2021/06/09 08:30:08;;;;;;;;;;;;;;;28.23;30.79;97052.27;1641680;85;20114;-80
2021/06/09 08:32:35;;;;;;;;;;;;;;;28.13;31.81;97053.70;1627772;86;20425;-79
2021/06/09 08:35:04;;;;;;;;;;;;;;;28.30;31.99;97036.73;1632584;86;20122;-78
2021/06/09 08:37:30;;;;;;;;;;;;;;;28.38;32.16;97058.55;1629688;86;20412;-78
2021/06/09 08:39:56;;;;;;;;;;;;;;;28.13;31.98;97059.66;1707560;82;20093;-78
2021/06/09 08:42:25;;;;;;;;;;;;;;;27.80;32.35;97058.33;1713635;82;20111;-79
2021/06/09 08:44:52;;;;;;;;;;;;;;;27.49;33.09;97058.97;1742819;82;20103;-79
2021/06/09 08:47:19;;;;;;;;;;;;;;;27.44;33.27;97048.84;1746965;82;20120;-79
2021/06/09 08:49:46;;;;;;;;;;;;;;;27.63;33.16;97057.67;1749443;82;20111;-79
2021/06/09 08:52:13;;;;;;;;;;;;;;;27.46;33.18;97049.44;1732095;81;20381;-80
2021/06/09 08:54:46;;;;;;;;;;;;;;;27.49;33.45;97052.20;1713648;82;20151;-78
2021/06/09 08:57:13;;;;;;;;;;;;;;;27.64;33.64;97053.91;1732874;82;20103;-77
2021/06/09 08:59:40;;;;;;;;;;;;;;;27.95;33.51;97045.16;1732325;81;20169;-80
2021/06/09 09:02:09;;;;;;;;;;;;;;;28.37;33.38;97041.48;1695484;82;20095;-79
2021/06/09 09:04:38;;;;;;;;;;;;;;;28.78;32.97;97046.38;1742754;82;20194;-79
2021/06/09 09:07:06;;;;;;;;;;;;;;;29.05;32.12;97039.01;1738749;81;20151;-79
2021/06/09 09:09:32;;;;;;;;;;;;;;;29.12;31.52;97042.42;1715268;82;20150;-80
2021/06/09 09:11:59;;;;;;;;;;;;;;;28.90;31.46;97036.87;1734160;82;20131;-79
2021/06/09 09:14:25;;;;;;;;;;;;;;;28.89;31.89;97040.64;1734462;81;20116;-79
2021/06/09 09:17:10;;;;;;;;;;;;;;;28.82;31.56;97035.87;1736853;82;20111;-78
2021/06/09 09:19:41;;;;;;;;;;;;;;;28.40;30.50;97036.11;1729370;81;20452;-79
2021/06/09 09:22:09;;;;;;;;;;;;;;;28.13;31.54;97033.38;1737447;82;20134;-78
2021/06/09 09:24:39;;;;;;;;;;;;;;;28.17;31.72;97037.28;1742611;82;20107;-79
2021/06/09 09:27:06;;;;;;;;;;;;;;;28.16;30.61;97032.11;1742244;81;20104;-79
2021/06/09 09:29:32;;;;;;;;;;;;;;;28.14;31.08;97032.33;1717817;82;20113;-79
2021/06/09 09:32:05;;;;;;;;;;;;;;;28.15;31.37;97033.16;1724472;82;20156;-79
2021/06/09 09:34:34;;;;;;;;;;;;;;;28.28;30.60;97024.76;1741002;82;20098;-79
2021/06/09 09:37:21;;;;;;;;;;;;;;;28.40;31.17;97028.79;1735150;82;20154;-80
2021/06/09 09:39:50;;;;;;;;;;;;;;;28.46;30.74;97029.20;1709730;82;20191;-79
2021/06/09 09:42:33;;;;;;;;;;;;;;;28.32;31.17;97030.01;1698086;83;20096;-78
2021/06/09 09:45:13;;;;;;;;;;;;;;;28.25;31.62;97026.61;1707829;83;20414;-79
2021/06/09 09:47:39;;;;;;;;;;;;;;;27.96;31.38;97026.50;1718504;83;20103;-79
2021/06/09 09:50:05;;;;;;;;;;;;;;;27.84;32.17;97027.03;1705600;83;20106;-79
2021/06/09 09:52:47;;;;;;;;;;;;;;;27.77;32.74;97020.91;1708546;83;20104;-80
2021/06/09 09:55:13;;;;;;;;;;;;;;;27.41;33.29;97014.93;1711692;83;20151;-80
2021/06/09 09:57:40;;;;;;;;;;;;;;;27.21;33.74;97016.58;1715650;83;20111;-81
2021/06/09 10:00:08;;;;;;;;;;;;;;;26.92;33.99;97016.38;1710041;83;20107;-79
2021/06/09 10:02:35;;;;;;;;;;;;;;;26.65;34.44;97018.62;1697418;83;20104;-78
2021/06/09 10:05:09;;;;;;;;;;;;;;;26.27;34.23;97007.02;1685817;85;20115;-79
2021/06/09 10:07:39;;;;;;;;;;;;;;;26.06;34.73;97008.81;1702785;83;20099;-81
2021/06/09 10:10:06;;;;;;;;;;;;;;;26.06;34.14;97000.71;1691150;83;20105;-80
2021/06/09 10:12:33;;;;;;;;;;;;;;;26.15;34.08;97002.09;1691148;83;20141;-79
2021/06/09 10:14:59;;;;;;;;;;;;;;;26.33;34.18;96998.03;1700229;83;20139;-79
2021/06/09 10:17:28;;;;;;;;;;;;;;;26.49;33.83;96997.09;1705258;83;20147;-79
2021/06/09 10:19:58;;;;;;;;;;;;;;;26.71;33.75;96994.72;1696392;82;20390;-79
2021/06/09 10:22:32;;;;;;;;;;;;;;;27.01;33.46;96986.30;1706163;83;20144;-80
2021/06/09 10:25:01;;;;;;;;;;;;;;;27.17;32.66;96983.46;1717713;83;20132;-79
2021/06/09 10:27:49;;;;;;;;;;;;;;;27.11;32.16;96985.21;1716886;83;20135;-79
2021/06/09 10:30:22;;;;;;;;;;;;;;;27.00;32.55;96986.03;1705125;83;20159;-79
2021/06/09 10:32:58;;;;;;;;;;;;;;;27.22;32.70;96979.55;1708880;83;20095;-79
2021/06/09 10:35:27;;;;;;;;;;;;;;;27.48;32.87;96982.89;1715998;83;20167;-77
2021/06/09 10:37:53;;;;;;;;;;;;;;;27.66;32.68;96978.72;1715303;82;20098;-79
2021/06/09 10:40:23;;;;;;;;;;;;;;;27.69;31.60;96985.02;1712507;83;20101;-80
2021/06/09 10:42:49;;;;;;;;;;;;;;;27.40;30.87;96972.69;1709505;82;20132;-81
2021/06/09 10:45:16;;;;;;;;;;;;;;;27.04;30.81;96976.39;1745689;81;20153;-80
2021/06/09 10:47:45;;;;;;;;;;;;;;;26.69;31.24;96973.03;1726653;83;20153;-80
2021/06/09 10:50:12;;;;;;;;;;;;;;;26.59;31.31;96963.59;1751043;82;20118;-80
2021/06/09 10:52:39;;;;;;;;;;;;;;;26.50;31.64;96960.37;1748858;81;20122;-79
2021/06/09 10:55:07;;;;;;;;;;;;;;;26.60;31.68;96953.09;1739309;81;20121;-79
2021/06/09 10:57:34;;;;;;;;;;;;;;;26.80;31.31;96952.81;1726771;82;20137;-80
2021/06/09 11:00:01;;;;;;;;;;;;;;;27.00;30.71;96952.23;1726656;83;20145;-79
2021/06/09 11:02:27;;;;;;;;;;;;;;;27.16;28.65;96954.77;1730494;82;20108;-79
2021/06/09 11:04:55;;;;;;;;;;;;;;;27.33;28.68;96946.25;1727490;82;20095;-80
2021/06/09 11:07:30;;;;;;;;;;;;;;;27.53;30.28;96943.75;1756682;81;20103;-80
2021/06/09 11:09:59;;;;;;;;;;;;;;;27.73;30.95;96942.86;1734211;81;20109;-80
2021/06/09 11:12:26;;;;;;;;;;;;;;;27.89;30.63;96944.02;1740720;82;20153;-80
2021/06/09 11:14:58;;;;;;;;;;;;;;;27.69;30.46;96939.00;1747402;81;20114;-83
2021/06/09 11:17:39;;;;;;;;;;;;;;;27.44;31.04;96931.13;1738416;81;20462;-80
2021/06/09 11:20:11;;;;;;;;;;;;;;;27.49;31.18;96930.42;1737587;81;20485;-81
2021/06/09 11:22:46;;;;;;;;;;;;;;;27.47;30.64;96934.69;1756553;81;20119;-80
2021/06/09 11:25:24;;;;;;;;;;;;;;;27.49;30.31;96930.42;1756569;81;20102;-82
2021/06/09 11:28:05;;;;;;;;;;;;;;;27.65;30.77;96932.40;1754743;81;20107;-84
2021/06/09 11:30:35;;;;;;;;;;;;;;;27.78;30.80;96933.22;1752291;82;20126;-83
2021/06/09 11:33:04;;;;;;;;;;;;;;;27.45;29.52;96934.64;1745614;82;20104;-78
2021/06/09 11:35:44;;;;;;;;;;;;;;;27.04;30.17;96927.20;1728810;82;20141;-79
2021/06/09 11:38:20;;;;;;;;;;;;;;;26.80;30.84;96916.33;1726676;83;20101;-80
2021/06/09 11:40:49;;;;;;;;;;;;;;;26.79;31.00;96920.63;1747258;82;20127;-80
2021/06/09 11:43:28;;;;;;;;;;;;;;;26.80;31.49;96912.81;1739359;81;20460;-78
2021/06/09 11:46:00;;;;;;;;;;;;;;;26.93;31.49;96907.72;1726926;82;20107;-81
2021/06/09 11:48:28;;;;;;;;;;;;;;;26.88;31.31;96913.82;1731560;82;20103;-80
2021/06/09 11:50:57;;;;;;;;;;;;;;;26.69;31.66;96910.86;1740547;81;20154;-81
2021/06/09 11:53:42;;;;;;;;;;;;;;;26.56;30.61;96911.89;1723625;82;20100;-80
2021/06/09 11:56:18;;;;;;;;;;;;;;;26.30;30.69;96913.92;1729864;82;20132;-79
2021/06/09 11:58:46;;;;;;;;;;;;;;;26.08;30.34;96923.81;1728062;82;20110;-79
2021/06/09 12:01:14;;;;;;;;;;;;;;;25.96;30.82;96918.87;1727958;82;20155;-78
2021/06/09 12:03:41;;;;;;;;;;;;;;;25.97;31.16;96918.66;1744086;81;20127;-78
2021/06/09 12:06:17;;;;;;;;;;;;;;;25.98;31.45;96920.83;1727461;82;20111;-81
2021/06/09 12:08:45;;;;;;;;;;;;;;;25.96;31.43;96931.86;1755699;81;20162;-80
2021/06/09 12:11:12;;;;;;;;;;;;;;;25.95;30.95;96924.80;1713527;84;20110;-80
2021/06/09 12:13:38;;;;;;;;;;;;;;;25.98;30.84;96930.27;1715141;82;20099;-81
2021/06/09 12:16:07;;;;;;;;;;;;;;;26.13;31.23;96929.92;1704633;83;20222;-81
2021/06/09 12:18:33;;;;;;;;;;;;;;;26.09;31.50;96940.86;1740637;82;20396;-81
2021/06/09 12:21:09;;;;;;;;;;;;;;;25.97;31.94;96940.77;1717415;81;20141;-80
2021/06/09 12:23:35;;;;;;;;;;;;;;;25.99;32.25;96937.33;1712538;82;20094;-79
2021/06/09 12:26:03;;;;;;;;;;;;;;;26.07;32.03;96939.72;1729000;82;20135;-80
2021/06/09 12:28:30;;;;;;;;;;;;;;;26.13;32.18;96938.83;1726693;82;20089;-78
2021/06/09 12:31:00;;;;;;;;;;;;;;;26.25;31.78;96938.07;1740580;82;20107;-79
2021/06/09 12:33:37;;;;;;;;;;;;;;;26.12;31.12;96943.96;1733179;81;20105;-81
2021/06/09 12:36:09;;;;;;;;;;;;;;;25.92;31.81;96936.05;1731189;82;20456;-78
2021/06/09 12:38:38;;;;;;;;;;;;;;;25.94;31.79;96937.19;1729234;82;20422;-79
2021/06/09 12:41:07;;;;;;;;;;;;;;;25.87;31.39;96942.66;1707781;84;20135;-78
2021/06/09 12:43:33;;;;;;;;;;;;;;;25.82;30.99;96936.59;1702732;84;20414;-81
2021/06/09 12:45:59;;;;;;;;;;;;;;;25.82;31.25;96931.19;1692306;83;20394;-79
2021/06/09 12:48:27;;;;;;;;;;;;;;;25.98;31.32;96941.08;1707105;82;20134;-79
2021/06/09 12:50:59;;;;;;;;;;;;;;;26.00;30.65;96938.44;1691645;84;20363;-80
2021/06/09 12:53:28;;;;;;;;;;;;;;;26.00;30.96;96935.73;1715296;84;20154;-80
2021/06/09 12:55:57;;;;;;;;;;;;;;;26.11;30.73;96944.16;1713266;84;20162;-80
2021/06/09 12:58:26;;;;;;;;;;;;;;;26.04;30.06;96944.21;1709488;84;20095;-80
2021/06/09 13:01:01;;;;;;;;;;;;;;;26.12;30.34;96935.86;1718277;83;20095;-80